^^
Station Historical Data
 
Daily Summary for February 20, 2020 Units:  Metric    English   Both
Next Day »
Daily Weekly Monthly Yearly Custom
  Current: High: Low: Average:
Temperature: 9.9 °C 9.9 °C 8.8 °C 9.3 °C
Dew Point: 7.3 °C 8.2 °C 7.2 °C 7.7 °C
Humidity: 84% 93% 84% 90%
Wind Speed: 18.5km/h 37.0km/h 5.6km/h 15.6km/h
Wind Gust: 11.7km/h 17.4km/h - -
WindSE - - South
Pressure: 993.9 hPa 1001.7 hPa 993.9 hPa -
Precipitation: 0.0 mm      
Historical Graphs
 
 
Tabular Data for February 20, 2020
Time Temperature Dew Point Pressure Wind Wind Speed Wind Gust Humidity Rainfall Rate (Hourly) solar Conditions
00:00 8.8 °C 7.4 °C 1001.6 hPa West 11.1 km/h 3.1 km/h 91% 0.0 mm 0.00 W/m2 BKN
00:05 8.8 °C 7.4 °C 1001.6 hPa SSE 11.1 km/h 7.7 km/h 91% 0.0 mm 0.00 W/m2 BKN
00:10 8.9 °C 7.5 °C 1001.7 hPa South 7.4 km/h 2.3 km/h 91% 0.0 mm 0.00 W/m2 BKN
00:15 8.9 °C 7.5 °C 1001.6 hPa SSE 14.8 km/h 2.7 km/h 91% 0.0 mm 0.00 W/m2 BKN
00:20 8.9 °C 7.6 °C 1001.5 hPa South 5.6 km/h 1.3 km/h 91% 0.0 mm 0.00 W/m2 BKN
00:25 8.9 °C 7.6 °C 1001.4 hPa South 14.8 km/h 7.6 km/h 91% 0.0 mm 0.00 W/m2 BKN
00:30 8.9 °C 7.6 °C 1001.3 hPa SSW 14.8 km/h 7.9 km/h 91% 0.0 mm 0.00 W/m2 BKN
00:35 9.0 °C 7.6 °C 1001.2 hPa South 11.1 km/h 2.1 km/h 91% 0.0 mm 0.00 W/m2 BKN
00:40 9.0 °C 7.6 °C 1001.1 hPa SSW 20.4 km/h 10.1 km/h 91% 0.0 mm 0.00 W/m2 BKN
00:45 9.0 °C 7.6 °C 1001.2 hPa SSE 16.7 km/h 8.8 km/h 91% 0.0 mm 0.00 W/m2 BKN
00:50 9.0 °C 7.6 °C 1001.0 hPa WSW 18.5 km/h 5.0 km/h 91% 0.0 mm 0.00 W/m2 BKN
00:55 9.1 °C 7.7 °C 1000.9 hPa SSE 9.7 km/h 3.1 km/h 91% 0.0 mm 0.00 W/m2 BKN
01:00 9.1 °C 7.7 °C 1000.9 hPa SW 9.3 km/h 2.6 km/h 91% 0.0 mm 0.00 W/m2 BKN
01:05 9.1 °C 7.7 °C 1000.9 hPa West 9.3 km/h 2.7 km/h 91% 0.0 mm 0.00 W/m2 BKN
01:10 9.1 °C 7.7 °C 1000.9 hPa South 11.3 km/h 2.7 km/h 91% 0.0 mm 0.00 W/m2 BKN
01:15 9.1 °C 7.7 °C 1000.8 hPa SW 16.7 km/h 9.7 km/h 91% 0.0 mm 0.00 W/m2 BKN
01:20 9.1 °C 7.7 °C 1000.9 hPa SW 13.0 km/h 6.0 km/h 91% 0.0 mm 0.00 W/m2 BKN
01:25 9.1 °C 7.8 °C 1000.7 hPa NE 11.1 km/h 4.5 km/h 92% 0.0 mm 0.00 W/m2 BKN
01:30 9.1 °C 7.8 °C 1000.6 hPa SE 16.7 km/h 4.5 km/h 92% 0.0 mm 0.00 W/m2 BKN
01:35 9.1 °C 7.8 °C 1000.6 hPa West 18.5 km/h 6.9 km/h 92% 0.0 mm 0.00 W/m2 BKN
01:40 9.1 °C 7.8 °C 1000.4 hPa West 14.8 km/h 4.3 km/h 92% 0.0 mm 0.00 W/m2 BKN
01:45 9.1 °C 7.9 °C 1000.4 hPa SSE 5.6 km/h 1.9 km/h 92% 0.0 mm 0.00 W/m2 BKN
01:50 9.1 °C 7.9 °C 1000.5 hPa SE 13.0 km/h 1.9 km/h 92% 0.0 mm 0.00 W/m2 BKN
01:55 9.1 °C 7.8 °C 1000.3 hPa West 18.5 km/h 5.1 km/h 92% 0.0 mm 0.00 W/m2 BKN
02:00 9.1 °C 7.8 °C 1000.3 hPa ESE 11.1 km/h 4.8 km/h 92% 0.0 mm 0.00 W/m2 BKN
02:05 9.1 °C 7.8 °C 1000.3 hPa SE 14.8 km/h 5.3 km/h 92% 0.0 mm 0.00 W/m2 BKN
02:10 9.0 °C 7.8 °C 1000.3 hPa ESE 14.8 km/h 5.5 km/h 92% 0.0 mm 0.00 W/m2 BKN
02:15 9.0 °C 7.8 °C 1000.1 hPa SE 14.8 km/h 7.7 km/h 92% 0.0 mm 0.00 W/m2 BKN
02:20 9.0 °C 7.8 °C 1000.1 hPa ESE 14.8 km/h 7.7 km/h 92% 0.0 mm 0.00 W/m2 BKN
02:25 8.9 °C 7.7 °C 1000.0 hPa West 11.1 km/h 2.4 km/h 92% 0.0 mm 0.00 W/m2 BKN
02:30 8.9 °C 7.9 °C 999.9 hPa West 14.8 km/h 4.0 km/h 93% 0.0 mm 0.00 W/m2 BKN
02:35 8.9 °C 7.8 °C 999.8 hPa South 9.3 km/h 3.5 km/h 93% 0.0 mm 0.00 W/m2 BKN
02:40 8.9 °C 7.8 °C 999.8 hPa East 14.8 km/h 4.8 km/h 93% 0.0 mm 0.00 W/m2 BKN
02:45 8.9 °C 7.8 °C 999.7 hPa SSE 7.4 km/h 1.9 km/h 93% 0.0 mm 0.00 W/m2 BKN
02:50 8.8 °C 7.8 °C 999.8 hPa SSW 12.9 km/h 3.4 km/h 93% 0.0 mm 0.00 W/m2 BKN
02:55 8.9 °C 7.8 °C 999.6 hPa WSW 9.3 km/h 2.9 km/h 93% 0.0 mm 0.00 W/m2 BKN
03:00 8.8 °C 7.8 °C 999.6 hPa WNW 11.3 km/h 1.9 km/h 93% 0.0 mm 0.00 W/m2 BKN
03:05 8.8 °C 7.8 °C 999.4 hPa South 11.1 km/h 3.2 km/h 93% 0.0 mm 0.00 W/m2 BKN
03:10 8.9 °C 7.8 °C 999.3 hPa NNE 7.4 km/h 1.8 km/h 93% 0.0 mm 0.00 W/m2 BKN
03:15 8.9 °C 7.9 °C 999.3 hPa South 22.2 km/h 7.7 km/h 93% 0.0 mm 0.00 W/m2 BKN
03:20 8.9 °C 7.9 °C 999.3 hPa West 18.5 km/h 6.4 km/h 93% 0.0 mm 0.00 W/m2 BKN
03:25 8.9 °C 7.9 °C 999.2 hPa South 5.6 km/h 2.3 km/h 93% 0.0 mm 0.00 W/m2 BKN
03:30 8.9 °C 7.9 °C 999.1 hPa SE 6.4 km/h 1.9 km/h 93% 0.0 mm 0.00 W/m2 BKN
03:35 9.0 °C 7.9 °C 999.0 hPa SE 7.4 km/h 3.7 km/h 93% 0.0 mm 0.00 W/m2 BKN
03:40 9.1 °C 8.0 °C 999.1 hPa WSW 6.4 km/h 1.1 km/h 93% 0.0 mm 0.00 W/m2 BKN
03:45 9.1 °C 8.0 °C 999.1 hPa SSW 6.4 km/h 2.1 km/h 93% 0.0 mm 0.00 W/m2 BKN
03:50 9.2 °C 8.1 °C 998.9 hPa SW 5.6 km/h 2.1 km/h 93% 0.0 mm 0.00 W/m2 BKN
03:55 9.2 °C 7.9 °C 998.8 hPa South 20.9 km/h 3.2 km/h 92% 0.0 mm 0.00 W/m2 BKN
04:00 9.2 °C 8.2 °C 998.8 hPa South 9.7 km/h 1.1 km/h 93% 0.0 mm 0.00 W/m2 BKN
04:05 9.2 °C 8.0 °C 998.7 hPa South 11.1 km/h 5.1 km/h 92% 0.0 mm 0.00 W/m2 BKN
04:10 9.3 °C 8.1 °C 998.7 hPa ESE 11.1 km/h 3.7 km/h 92% 0.0 mm 0.00 W/m2 BKN
04:15 9.3 °C 8.1 °C 998.5 hPa SSW 13.0 km/h 4.7 km/h 92% 0.0 mm 0.00 W/m2 BKN
04:20 9.3 °C 8.1 °C 998.3 hPa SSE 16.7 km/h 4.5 km/h 92% 0.0 mm 0.00 W/m2 BKN
04:25 9.4 °C 8.0 °C 998.2 hPa SSE 11.1 km/h 4.0 km/h 91% 0.0 mm 0.00 W/m2 BKN
04:30 9.4 °C 8.1 °C 998.1 hPa South 11.3 km/h 5.1 km/h 91% 0.0 mm 0.00 W/m2 BKN
04:35 9.4 °C 7.9 °C 998.0 hPa SSE 16.7 km/h 7.2 km/h 90% 0.0 mm 0.00 W/m2 BKN
04:40 9.5 °C 7.9 °C 997.8 hPa SSW 13.0 km/h 3.1 km/h 90% 0.0 mm 0.00 W/m2 BKN
04:45 9.6 °C 8.1 °C 997.8 hPa South 13.0 km/h 5.3 km/h 90% 0.0 mm 0.00 W/m2 BKN
04:50 9.6 °C 8.1 °C 997.6 hPa South 14.5 km/h 8.0 km/h 90% 0.0 mm 0.00 W/m2 BKN
04:55 9.7 °C 7.9 °C 997.5 hPa SSW 11.1 km/h 4.2 km/h 89% 0.0 mm 0.00 W/m2 BKN
05:00 9.7 °C 8.0 °C 997.3 hPa SW 18.5 km/h 7.7 km/h 89% 0.0 mm 0.00 W/m2 BKN
05:05 9.8 °C 7.9 °C 997.2 hPa South 13.0 km/h 3.2 km/h 88% 0.0 mm 0.00 W/m2 BKN
05:10 9.8 °C 7.9 °C 997.1 hPa SW 16.7 km/h 5.0 km/h 88% 0.0 mm 0.00 W/m2 BKN
05:15 9.8 °C 7.9 °C 997.1 hPa SW 18.5 km/h 8.8 km/h 88% 0.0 mm 0.00 W/m2 BKN
05:20 9.9 °C 7.9 °C 997.0 hPa South 11.1 km/h 3.1 km/h 87% 0.0 mm 0.00 W/m2 BKN
05:25 9.9 °C 7.9 °C 997.0 hPa South 11.1 km/h 3.4 km/h 87% 0.0 mm 0.00 W/m2 BKN
05:30 9.9 °C 7.9 °C 997.0 hPa South 13.0 km/h 3.2 km/h 87% 0.0 mm 0.00 W/m2 BKN
05:35 9.9 °C 7.9 °C 996.9 hPa SSE 17.7 km/h 1.8 km/h 87% 0.0 mm 0.00 W/m2 BKN
05:40 9.9 °C 7.9 °C 996.7 hPa SSE 9.3 km/h 3.7 km/h 87% 0.0 mm 0.00 W/m2 BKN
05:45 9.9 °C 7.7 °C 996.6 hPa SW 24.1 km/h 4.3 km/h 86% 0.0 mm 0.00 W/m2 BKN
05:50 9.9 °C 7.7 °C 996.4 hPa SSE 22.5 km/h 5.5 km/h 86% 0.0 mm 0.00 W/m2 BKN
05:55 9.9 °C 7.7 °C 996.3 hPa SW 14.8 km/h 5.0 km/h 86% 0.0 mm 0.00 W/m2 BKN
06:00 9.9 °C 7.7 °C 996.2 hPa WNW 16.7 km/h 7.1 km/h 86% 0.0 mm 0.00 W/m2 BKN
06:05 9.9 °C 7.7 °C 996.0 hPa NNW 18.5 km/h 9.8 km/h 86% 0.0 mm 0.00 W/m2 SCT
06:10 9.9 °C 7.5 °C 995.8 hPa WSW 22.2 km/h 13.0 km/h 85% 0.0 mm 0.00 W/m2 SCT
06:15 9.9 °C 7.6 °C 995.7 hPa SSE 16.7 km/h 5.3 km/h 85% 0.0 mm 0.00 W/m2 SCT
06:20 9.9 °C 7.5 °C 995.6 hPa ENE 25.9 km/h 9.0 km/h 85% 0.0 mm 0.00 W/m2 SCT
06:25 9.9 °C 7.5 °C 995.5 hPa SE 9.3 km/h 5.3 km/h 85% 0.0 mm 0.00 W/m2 SCT
06:30 9.8 °C 7.4 °C 995.5 hPa South 7.4 km/h 3.4 km/h 85% 0.0 mm 0.00 W/m2 SCT
06:35 9.8 °C 7.4 °C 995.3 hPa SSE 20.4 km/h 5.0 km/h 85% 0.0 mm 0.00 W/m2 SCT
06:40 9.8 °C 7.4 °C 995.0 hPa WNW 24.1 km/h 14.0 km/h 85% 0.0 mm 0.00 W/m2 SCT
06:45 9.8 °C 7.4 °C 995.0 hPa WSW 31.5 km/h 15.3 km/h 85% 0.0 mm 0.00 W/m2 SCT
06:50 9.7 °C 7.3 °C 994.8 hPa South 33.3 km/h 16.9 km/h 85% 0.0 mm 0.00 W/m2 SCT
06:55 9.7 °C 7.3 °C 994.6 hPa South 27.8 km/h 15.4 km/h 85% 0.0 mm 0.00 W/m2 SCT
07:00 9.7 °C 7.3 °C 994.5 hPa NNW 33.3 km/h 17.4 km/h 85% 0.0 mm 0.00 W/m2 SCT
07:05 9.7 °C 7.3 °C 994.4 hPa SSE 25.7 km/h 10.0 km/h 85% 0.0 mm 0.00 W/m2 SCT
07:10 9.7 °C 7.3 °C 994.4 hPa SSE 29.6 km/h 10.1 km/h 85% 0.0 mm 0.00 W/m2 SCT
07:15 9.7 °C 7.3 °C 994.2 hPa WSW 29.6 km/h 12.1 km/h 85% 0.0 mm 0.00 W/m2 SCT
07:20 9.8 °C 7.4 °C 994.0 hPa SSE 25.9 km/h 13.7 km/h 85% 0.0 mm 5.00 W/m2 SCT
07:25 9.8 °C 7.2 °C 994.1 hPa SSE 24.1 km/h 11.7 km/h 84% 0.0 mm 5.00 W/m2 SCT
07:30 9.8 °C 7.4 °C 994.0 hPa SSE 27.8 km/h 15.1 km/h 85% 0.0 mm 5.00 W/m2 SCT
07:35 9.8 °C 7.2 °C 994.0 hPa South 22.2 km/h 11.1 km/h 84% 0.0 mm 11.00 W/m2 SCT
07:40 9.8 °C 7.3 °C 994.1 hPa South 37.0 km/h 15.9 km/h 84% 0.0 mm 19.00 W/m2 SCT
07:45 9.9 °C 7.3 °C 993.9 hPa SE 18.5 km/h 11.7 km/h 84% 0.0 mm 21.00 W/m2 SCT
Billingham Weather Station